Time;durP1;ratioP1;P1;durP2;ratioP2;P2;SDS_P1;SDS_P2;PMS_P1;PMS_P2;Temp;Humidity;BMP_temperature;BMP_pressure;BME280_temperature;BME280_humidity;BME280_pressure;Samples;Min_cycle;Max_cycle;Signal;HPM_P1;HPM_P2
2024/04/14 00:00:06;;;;;;;0.00;0.00;;;19.70;50.10;;;;;;5400816;26;20234;-50
2024/04/14 00:02:36;;;;;;;0.00;0.00;;;19.70;50.10;;;;;;5400561;26;20225;-48
2024/04/14 00:05:08;;;;;;;0.08;0.08;;;19.70;50.00;;;;;;5400851;26;20233;-47
2024/04/14 00:07:38;;;;;;;0.00;0.00;;;19.70;50.10;;;;;;5400664;26;20252;-50
2024/04/14 00:10:11;;;;;;;0.03;0.03;;;19.70;50.10;;;;;;5401581;26;20740;-49
2024/04/14 00:12:41;;;;;;;0.00;0.00;;;19.80;50.10;;;;;;5400434;26;20312;-47
2024/04/14 00:15:16;;;;;;;0.10;0.10;;;19.80;50.10;;;;;;5399865;26;20234;-50
2024/04/14 00:17:45;;;;;;;0.00;0.00;;;19.80;50.10;;;;;;5366735;26;20265;-48
2024/04/14 00:20:18;;;;;;;0.00;0.00;;;19.80;50.10;;;;;;5365753;26;20226;-54
2024/04/14 00:22:50;;;;;;;0.00;0.00;;;19.80;50.20;;;;;;5364428;26;20261;-47
2024/04/14 00:25:22;;;;;;;0.00;0.00;;;19.90;50.20;;;;;;5364850;26;20234;-53
2024/04/14 00:27:52;;;;;;;0.10;0.10;;;19.90;50.30;;;;;;5397623;21;20252;-45
2024/04/14 00:30:27;;;;;;;0.10;0.10;;;19.90;50.30;;;;;;5436600;26;20307;-46
2024/04/14 00:32:56;;;;;;;0.05;0.05;;;19.90;50.20;;;;;;5419962;26;20256;-45
2024/04/14 00:35:29;;;;;;;0.08;0.08;;;20.00;50.30;;;;;;5401382;26;20252;-46
2024/04/14 00:37:59;;;;;;;0.10;0.10;;;20.00;50.20;;;;;;5395835;26;20268;-45
2024/04/14 00:40:31;;;;;;;0.00;0.00;;;20.00;50.20;;;;;;5369676;26;20230;-47
2024/04/14 00:43:01;;;;;;;0.00;0.00;;;20.00;50.10;;;;;;5369869;26;20249;-44
2024/04/14 00:45:36;;;;;;;0.03;0.03;;;20.00;50.10;;;;;;5369601;26;20223;-44
2024/04/14 00:48:07;;;;;;;0.00;0.00;;;20.00;50.10;;;;;;5368907;26;20222;-45
2024/04/14 00:50:39;;;;;;;0.00;0.00;;;20.00;50.10;;;;;;5380447;26;20225;-48
2024/04/14 00:53:09;;;;;;;0.00;0.00;;;20.10;50.20;;;;;;5380280;26;20709;-45
2024/04/14 00:55:43;;;;;;;0.08;0.08;;;20.10;50.30;;;;;;5384839;26;20222;-44
2024/04/14 00:58:13;;;;;;;0.00;0.00;;;20.10;50.40;;;;;;5364525;26;20219;-44
2024/04/14 01:00:50;;;;;;;0.00;0.00;;;20.10;50.50;;;;;;5403399;26;20217;-46
2024/04/14 01:03:19;;;;;;;0.00;0.00;;;20.10;50.50;;;;;;5404671;26;20233;-47
2024/04/14 01:05:51;;;;;;;0.10;0.10;;;20.10;50.50;;;;;;5404876;26;20871;-45
2024/04/14 01:08:21;;;;;;;0.10;0.10;;;20.20;50.50;;;;;;5404119;26;20725;-47
2024/04/14 01:10:53;;;;;;;0.10;0.10;;;20.20;50.50;;;;;;5404272;26;20272;-46
2024/04/14 01:13:23;;;;;;;0.00;0.00;;;20.20;50.50;;;;;;5404274;26;20229;-46
2024/04/14 01:15:58;;;;;;;0.00;0.00;;;20.20;50.30;;;;;;5403999;26;20209;-45
2024/04/14 01:18:27;;;;;;;0.10;0.10;;;20.30;50.30;;;;;;5404552;26;20217;-45
2024/04/14 01:21:00;;;;;;;0.08;0.08;;;20.30;50.20;;;;;;5394954;26;20223;-46
2024/04/14 01:23:29;;;;;;;0.00;0.00;;;20.30;49.90;;;;;;5383593;26;20225;-44
2024/04/14 01:26:05;;;;;;;0.00;0.00;;;20.40;49.80;;;;;;5404776;26;20563;-45
2024/04/14 01:28:34;;;;;;;0.08;0.08;;;20.40;49.70;;;;;;5435713;21;20260;-52
2024/04/14 01:31:06;;;;;;;0.00;0.00;;;20.40;49.70;;;;;;5440143;26;20247;-50
2024/04/14 01:33:35;;;;;;;0.00;0.00;;;20.40;49.70;;;;;;5414383;26;20279;-49
2024/04/14 01:36:08;;;;;;;0.00;0.00;;;20.40;49.60;;;;;;5372644;26;20257;-48
2024/04/14 01:38:37;;;;;;;0.10;0.10;;;20.40;49.60;;;;;;5369029;26;20223;-54
2024/04/14 01:41:13;;;;;;;0.00;0.00;;;20.40;49.50;;;;;;5368797;26;20238;-51
2024/04/14 01:43:43;;;;;;;0.00;0.00;;;20.40;49.50;;;;;;5368854;26;20226;-49
2024/04/14 01:46:15;;;;;;;0.00;0.00;;;20.40;49.50;;;;;;5368592;26;20272;-48
2024/04/14 01:48:45;;;;;;;0.10;0.10;;;20.40;49.50;;;;;;5368609;26;20214;-51
2024/04/14 01:51:18;;;;;;;0.00;0.00;;;20.50;49.50;;;;;;5368643;26;20282;-47
2024/04/14 01:53:47;;;;;;;0.10;0.10;;;20.40;49.50;;;;;;5368640;26;20234;-51
2024/04/14 01:56:22;;;;;;;0.10;0.10;;;20.50;50.10;;;;;;5370682;26;20269;-48
2024/04/14 01:58:54;;;;;;;0.00;0.00;;;20.50;49.40;;;;;;5406228;26;20284;-47
2024/04/14 02:01:24;;;;;;;0.00;0.00;;;20.50;49.30;;;;;;5407365;26;20221;-49
2024/04/14 02:03:56;;;;;;;0.00;0.00;;;20.50;49.30;;;;;;5407587;26;20293;-48
2024/04/14 02:06:25;;;;;;;0.00;0.00;;;20.50;49.20;;;;;;5408024;26;20346;-46
2024/04/14 02:08:57;;;;;;;0.00;0.00;;;20.50;49.20;;;;;;5406978;26;20696;-51
2024/04/14 02:11:30;;;;;;;0.00;0.00;;;20.50;49.20;;;;;;5407447;26;20217;-48
2024/04/14 02:14:03;;;;;;;0.00;0.00;;;20.50;48.90;;;;;;5407745;26;20237;-52
2024/04/14 02:16:32;;;;;;;0.10;0.10;;;20.50;48.70;;;;;;5407321;26;20744;-50
2024/04/14 02:19:05;;;;;;;0.00;0.00;;;20.50;48.70;;;;;;5403881;26;20295;-48
2024/04/14 02:21:34;;;;;;;0.10;0.10;;;20.60;48.90;;;;;;5406804;26;20218;-50
2024/04/14 02:24:06;;;;;;;0.10;0.10;;;20.50;48.90;;;;;;5407060;26;20233;-49
2024/04/14 02:26:38;;;;;;;0.00;0.00;;;20.50;48.80;;;;;;5407223;26;20544;-54
2024/04/14 02:29:11;;;;;;;0.00;0.00;;;20.50;48.80;;;;;;5407310;26;20713;-51
2024/04/14 02:31:40;;;;;;;0.00;0.00;;;20.60;48.80;;;;;;5406304;26;20221;-55
2024/04/14 02:34:12;;;;;;;0.00;0.00;;;20.60;48.80;;;;;;5406611;26;20229;-51
2024/04/14 02:36:41;;;;;;;0.00;0.00;;;20.60;48.80;;;;;;5407040;26;20320;-54
2024/04/14 02:39:14;;;;;;;0.10;0.10;;;20.60;48.70;;;;;;5406819;26;20233;-48
2024/04/14 02:41:47;;;;;;;0.00;0.00;;;20.70;48.80;;;;;;5409290;26;20226;-52
2024/04/14 02:44:20;;;;;;;0.10;0.10;;;20.70;48.80;;;;;;5406465;26;20225;-55
2024/04/14 02:46:50;;;;;;;0.10;0.10;;;20.70;48.70;;;;;;5406090;26;20795;-54
2024/04/14 02:49:23;;;;;;;0.00;0.00;;;20.70;48.70;;;;;;5406514;26;20289;-52
2024/04/14 02:51:53;;;;;;;0.00;0.00;;;20.70;48.50;;;;;;5406741;26;20542;-55
2024/04/14 02:54:25;;;;;;;0.03;0.03;;;20.70;48.20;;;;;;5407093;26;20241;-51
2024/04/14 02:56:57;;;;;;;0.00;0.00;;;20.80;48.30;;;;;;5406653;26;20308;-53
2024/04/14 02:59:29;;;;;;;0.00;0.00;;;20.70;48.20;;;;;;5406700;26;20588;-48
2024/04/14 03:01:59;;;;;;;0.00;0.00;;;20.80;48.30;;;;;;5406256;26;20305;-50
2024/04/14 03:04:31;;;;;;;0.10;0.10;;;20.80;48.30;;;;;;5406187;26;20279;-48
2024/04/14 03:07:00;;;;;;;0.00;0.00;;;20.80;48.20;;;;;;5406314;26;20221;-53
2024/04/14 03:09:32;;;;;;;0.10;0.10;;;20.80;48.10;;;;;;5405415;26;20261;-47
2024/04/14 03:12:05;;;;;;;0.05;0.05;;;20.80;48.20;;;;;;5406871;26;20693;-50
2024/04/14 03:14:37;;;;;;;0.08;0.08;;;20.80;48.30;;;;;;5406573;26;20233;-53
2024/04/14 03:17:07;;;;;;;0.10;0.10;;;20.80;48.30;;;;;;5406393;26;20285;-54
2024/04/14 03:19:39;;;;;;;0.00;0.00;;;20.80;48.40;;;;;;5406375;26;20255;-51
2024/04/14 03:22:09;;;;;;;0.10;0.10;;;20.80;48.40;;;;;;5405882;26;20616;-51
2024/04/14 03:24:41;;;;;;;0.00;0.00;;;20.90;48.30;;;;;;5400198;26;20284;-51
2024/04/14 03:27:13;;;;;;;0.05;0.05;;;20.90;48.30;;;;;;5405682;26;20222;-53
2024/04/14 03:29:46;;;;;;;0.00;0.00;;;20.90;48.20;;;;;;5386651;26;20234;-49
2024/04/14 03:32:15;;;;;;;0.00;0.00;;;21.00;48.10;;;;;;5375432;26;20289;-49
2024/04/14 03:34:48;;;;;;;0.10;0.10;;;21.00;48.00;;;;;;5396678;26;20238;-55
2024/04/14 03:37:20;;;;;;;0.10;0.10;;;21.00;47.90;;;;;;5405578;26;20332;-50
2024/04/14 03:39:52;;;;;;;0.10;0.10;;;21.00;47.90;;;;;;5406548;26;20263;-49
2024/04/14 03:42:28;;;;;;;0.00;0.00;;;21.00;47.90;;;;;;5405909;26;20541;-49
2024/04/14 03:45:00;;;;;;;0.03;0.03;;;21.00;47.90;;;;;;5405487;26;20345;-53
2024/04/14 03:47:29;;;;;;;0.00;0.00;;;21.00;48.00;;;;;;5405780;26;20599;-51
2024/04/14 03:50:02;;;;;;;0.00;0.00;;;21.00;47.90;;;;;;5405633;26;20225;-52
2024/04/14 03:52:32;;;;;;;0.10;0.10;;;21.00;47.90;;;;;;5406018;26;20729;-49
2024/04/14 03:55:04;;;;;;;0.00;0.00;;;21.10;47.90;;;;;;5405854;26;20238;-48
2024/04/14 03:57:36;;;;;;;0.10;0.10;;;21.10;48.00;;;;;;5400386;26;20330;-47
2024/04/14 04:00:09;;;;;;;0.00;0.00;;;21.10;47.90;;;;;;5405846;26;20255;-49
2024/04/14 04:02:39;;;;;;;0.00;0.00;;;21.10;47.80;;;;;;5405581;26;20763;-50
2024/04/14 04:05:11;;;;;;;0.10;0.10;;;21.10;47.80;;;;;;5406040;26;20237;-50
2024/04/14 04:07:40;;;;;;;0.00;0.00;;;21.10;47.80;;;;;;5406168;26;20214;-48
2024/04/14 04:10:13;;;;;;;0.10;0.10;;;21.10;47.60;;;;;;5406095;26;20275;-48
2024/04/14 04:12:45;;;;;;;0.10;0.10;;;21.10;47.60;;;;;;5405344;26;20233;-52
2024/04/14 04:15:18;;;;;;;0.00;0.00;;;21.20;47.70;;;;;;5405302;26;20284;-48
2024/04/14 04:17:47;;;;;;;0.10;0.10;;;21.20;47.50;;;;;;5402781;26;20264;-47
2024/04/14 04:20:19;;;;;;;0.00;0.00;;;21.20;47.50;;;;;;5405273;26;20649;-48
2024/04/14 04:22:49;;;;;;;0.03;0.03;;;21.20;47.50;;;;;;5406256;26;20214;-49
2024/04/14 04:25:21;;;;;;;0.00;0.00;;;21.20;47.30;;;;;;5405504;26;20264;-49
2024/04/14 04:27:53;;;;;;;0.00;0.00;;;21.20;47.20;;;;;;5423916;21;20246;-47
2024/04/14 04:30:25;;;;;;;0.10;0.10;;;21.20;47.20;;;;;;5441188;26;20731;-47
2024/04/14 04:32:54;;;;;;;0.00;0.00;;;21.20;47.10;;;;;;5431207;26;20224;-46
2024/04/14 04:35:27;;;;;;;0.10;0.10;;;21.20;47.00;;;;;;5441057;26;20220;-46
2024/04/14 04:37:57;;;;;;;0.05;0.05;;;21.20;46.90;;;;;;5440835;26;20256;-46
2024/04/14 04:40:29;;;;;;;0.10;0.10;;;21.20;46.80;;;;;;5440739;26;20296;-46
2024/04/14 04:43:01;;;;;;;0.10;0.10;;;21.20;46.70;;;;;;5440496;26;20699;-45
2024/04/14 04:45:34;;;;;;;0.00;0.00;;;21.20;46.60;;;;;;5440687;26;20285;-46
2024/04/14 04:48:03;;;;;;;0.00;0.00;;;21.20;46.60;;;;;;5440972;26;20220;-47
2024/04/14 04:50:37;;;;;;;0.03;0.03;;;21.20;46.50;;;;;;5440901;26;20267;-45
2024/04/14 04:53:06;;;;;;;0.00;0.00;;;21.20;46.50;;;;;;5440293;26;20209;-45
2024/04/14 04:55:38;;;;;;;0.00;0.00;;;21.20;46.50;;;;;;5440236;26;20217;-45
2024/04/14 04:58:10;;;;;;;0.03;0.03;;;21.10;46.40;;;;;;5440801;26;20220;-45
2024/04/14 05:00:43;;;;;;;0.10;0.10;;;21.10;46.40;;;;;;5440547;26;20229;-44
2024/04/14 05:03:12;;;;;;;0.00;0.00;;;21.10;46.40;;;;;;5440220;26;20221;-45
2024/04/14 05:05:44;;;;;;;0.00;0.00;;;21.10;46.40;;;;;;5440638;26;20220;-47
2024/04/14 05:08:13;;;;;;;0.03;0.03;;;21.10;46.50;;;;;;5440809;26;20323;-45
2024/04/14 05:10:45;;;;;;;0.08;0.08;;;21.10;46.40;;;;;;5440614;26;20271;-44
2024/04/14 05:13:18;;;;;;;0.00;0.00;;;21.00;46.40;;;;;;5440171;26;20732;-44
2024/04/14 05:15:50;;;;;;;0.00;0.00;;;21.00;46.30;;;;;;5440117;26;20743;-44
2024/04/14 05:18:19;;;;;;;0.10;0.10;;;21.00;46.40;;;;;;5440059;26;20216;-44
2024/04/14 05:20:52;;;;;;;0.00;0.00;;;21.00;46.40;;;;;;5417465;26;20229;-45
2024/04/14 05:23:21;;;;;;;0.00;0.00;;;21.00;46.50;;;;;;5404017;26;20721;-44
2024/04/14 05:25:54;;;;;;;0.10;0.10;;;21.00;46.50;;;;;;5403796;26;20480;-45
2024/04/14 05:28:26;;;;;;;0.03;0.03;;;20.90;46.40;;;;;;5406528;26;20272;-45
2024/04/14 05:30:59;;;;;;;0.10;0.10;;;21.00;46.50;;;;;;5405141;26;20238;-45
2024/04/14 05:33:28;;;;;;;0.00;0.00;;;20.90;46.50;;;;;;5429030;26;20232;-44
2024/04/14 05:36:01;;;;;;;0.10;0.10;;;20.90;46.50;;;;;;5438412;26;20224;-45
2024/04/14 05:38:32;;;;;;;0.10;0.10;;;20.90;46.50;;;;;;5441774;26;20315;-44
2024/04/14 05:41:04;;;;;;;0.10;0.10;;;20.80;46.50;;;;;;5443303;26;20216;-46
2024/04/14 05:43:36;;;;;;;0.05;0.05;;;20.80;46.50;;;;;;5443690;26;20266;-46
2024/04/14 05:46:09;;;;;;;0.10;0.10;;;20.80;46.50;;;;;;5443752;26;20744;-45
2024/04/14 05:48:38;;;;;;;0.00;0.00;;;20.80;46.50;;;;;;5437749;26;20225;-45
2024/04/14 05:51:11;;;;;;;0.00;0.00;;;20.90;46.60;;;;;;5444041;26;20596;-45
2024/04/14 05:53:41;;;;;;;0.10;0.10;;;20.80;46.60;;;;;;5443398;26;20224;-46
2024/04/14 05:56:13;;;;;;;0.10;0.10;;;20.80;46.60;;;;;;5443681;26;20285;-45
2024/04/14 05:58:45;;;;;;;0.00;0.00;;;20.80;46.70;;;;;;5443709;26;20259;-46
2024/04/14 06:01:18;;;;;;;0.10;0.10;;;20.80;46.80;;;;;;5443338;26;20228;-45
2024/04/14 06:03:48;;;;;;;0.00;0.00;;;20.80;46.80;;;;;;5415471;26;20824;-45
2024/04/14 06:06:21;;;;;;;0.10;0.10;;;20.80;46.80;;;;;;5407836;26;20264;-45
2024/04/14 06:08:52;;;;;;;0.10;0.10;;;20.80;46.80;;;;;;5407640;26;20268;-45
2024/04/14 06:11:24;;;;;;;0.00;0.00;;;20.70;46.90;;;;;;5407535;26;20225;-46
2024/04/14 06:13:56;;;;;;;0.08;0.08;;;20.70;46.90;;;;;;5407206;26;20226;-47
2024/04/14 06:16:29;;;;;;;0.10;0.10;;;20.70;46.90;;;;;;5407665;26;20822;-46
2024/04/14 06:18:58;;;;;;;0.05;0.05;;;20.70;46.90;;;;;;5407001;26;20740;-47
2024/04/14 06:21:30;;;;;;;0.08;0.08;;;20.70;46.90;;;;;;5427009;26;20336;-46
2024/04/14 06:23:59;;;;;;;0.00;0.00;;;20.70;47.00;;;;;;5443198;26;20229;-46
2024/04/14 06:26:32;;;;;;;0.00;0.00;;;20.70;47.00;;;;;;5442914;26;20320;-46
2024/04/14 06:29:04;;;;;;;0.10;0.10;;;20.60;47.00;;;;;;5443059;26;20224;-46
2024/04/14 06:31:36;;;;;;;0.00;0.00;;;20.60;47.00;;;;;;5442807;26;20262;-45
2024/04/14 06:34:06;;;;;;;0.03;0.03;;;20.60;47.00;;;;;;5410029;26;20301;-46
2024/04/14 06:36:38;;;;;;;0.05;0.05;;;20.60;47.00;;;;;;5406836;26;20269;-46
2024/04/14 06:39:07;;;;;;;0.10;0.10;;;20.60;47.00;;;;;;5407043;26;20217;-46
2024/04/14 06:41:39;;;;;;;0.10;0.10;;;20.60;47.00;;;;;;5407184;26;20600;-47
2024/04/14 06:44:12;;;;;;;0.00;0.00;;;20.60;47.00;;;;;;5409573;26;20846;-45
2024/04/14 06:46:44;;;;;;;0.00;0.00;;;20.60;47.00;;;;;;5406260;26;20290;-46
2024/04/14 06:49:13;;;;;;;0.00;0.00;;;20.60;47.10;;;;;;5406718;26;20693;-45
2024/04/14 06:51:46;;;;;;;0.00;0.00;;;20.60;47.00;;;;;;5406661;26;20269;-46
2024/04/14 06:54:15;;;;;;;0.10;0.10;;;20.60;47.10;;;;;;5406897;26;20225;-45
2024/04/14 06:56:47;;;;;;;0.00;0.00;;;20.50;47.00;;;;;;5407039;26;20218;-47
2024/04/14 06:59:20;;;;;;;0.00;0.00;;;20.50;47.00;;;;;;5406780;26;20714;-46
2024/04/14 07:01:52;;;;;;;0.00;0.00;;;20.50;47.00;;;;;;5406536;26;20321;-46
2024/04/14 07:04:21;;;;;;;0.10;0.10;;;20.50;47.10;;;;;;5406822;26;20676;-46
2024/04/14 07:06:53;;;;;;;0.10;0.10;;;20.50;47.10;;;;;;5406787;26;20222;-45
2024/04/14 07:09:23;;;;;;;0.00;0.00;;;20.50;47.10;;;;;;5406677;26;20213;-44
2024/04/14 07:11:56;;;;;;;0.00;0.00;;;20.50;47.10;;;;;;5406643;26;20309;-47
2024/04/14 07:14:28;;;;;;;0.00;0.00;;;20.50;47.20;;;;;;5405997;26;20233;-47
2024/04/14 07:17:01;;;;;;;0.00;0.00;;;20.50;47.20;;;;;;5428383;26;20275;-45
2024/04/14 07:19:30;;;;;;;0.00;0.00;;;20.50;47.20;;;;;;5442304;26;20217;-47
2024/04/14 07:22:02;;;;;;;0.00;0.00;;;20.50;47.30;;;;;;5442182;26;20704;-45
2024/04/14 07:24:31;;;;;;;0.10;0.10;;;20.50;47.30;;;;;;5442270;26;20225;-45
2024/04/14 07:27:05;;;;;;;0.10;0.10;;;20.50;47.30;;;;;;5433438;26;20234;-45
2024/04/14 07:29:37;;;;;;;0.00;0.00;;;20.50;47.30;;;;;;5406121;26;20277;-46
2024/04/14 07:32:11;;;;;;;0.08;0.08;;;20.50;47.30;;;;;;5405520;26;20756;-45
2024/04/14 07:34:40;;;;;;;0.00;0.00;;;20.50;47.20;;;;;;5406595;26;20832;-47
2024/04/14 07:37:12;;;;;;;0.00;0.00;;;20.50;47.20;;;;;;5406430;26;20221;-44
2024/04/14 07:39:42;;;;;;;0.00;0.00;;;20.50;47.20;;;;;;5405375;26;20218;-45
2024/04/14 07:42:14;;;;;;;0.00;0.00;;;20.50;47.20;;;;;;5405403;26;20272;-45
2024/04/14 07:44:46;;;;;;;0.10;0.10;;;20.50;47.20;;;;;;5407188;26;20340;-45
2024/04/14 07:47:18;;;;;;;0.10;0.10;;;20.50;47.20;;;;;;5413074;26;20275;-46
2024/04/14 07:49:48;;;;;;;0.00;0.00;;;20.50;47.30;;;;;;5441443;26;20220;-45
2024/04/14 07:52:21;;;;;;;0.05;0.05;;;20.50;47.30;;;;;;5441243;26;20216;-45
2024/04/14 07:54:50;;;;;;;0.00;0.00;;;20.50;47.30;;;;;;5441483;26;20230;-45
2024/04/14 07:57:22;;;;;;;0.10;0.10;;;20.50;47.30;;;;;;5440327;26;20696;-45
2024/04/14 07:59:54;;;;;;;0.00;0.00;;;20.50;47.30;;;;;;5441240;26;20217;-46
2024/04/14 08:02:27;;;;;;;0.00;0.00;;;20.50;47.30;;;;;;5440738;26;20696;-45
2024/04/14 08:04:56;;;;;;;0.00;0.00;;;20.50;47.30;;;;;;5439992;26;20275;-45
2024/04/14 08:07:28;;;;;;;0.00;0.00;;;20.40;47.90;;;;;;5440655;26;20220;-46
2024/04/14 08:09:57;;;;;;;0.00;0.00;;;20.50;47.30;;;;;;5441261;26;20212;-45
2024/04/14 08:12:30;;;;;;;0.00;0.00;;;20.40;47.30;;;;;;5440293;26;20288;-44
2024/04/14 08:15:02;;;;;;;0.00;0.00;;;20.40;47.30;;;;;;5440636;26;20271;-46
2024/04/14 08:17:36;;;;;;;0.03;0.03;;;20.50;47.50;;;;;;5436609;26;20268;-45
2024/04/14 08:20:05;;;;;;;0.05;0.05;;;20.40;47.40;;;;;;5404438;26;20217;-45
2024/04/14 08:22:38;;;;;;;0.08;0.08;;;20.40;47.40;;;;;;5404693;26;20221;-45
2024/04/14 08:25:07;;;;;;;0.10;0.10;;;20.40;47.40;;;;;;5404731;26;20280;-46
2024/04/14 08:27:42;;;;;;;0.10;0.10;;;20.50;47.40;;;;;;5404554;26;20263;-45
2024/04/14 08:30:15;;;;;;;0.00;0.00;;;20.40;47.40;;;;;;5405685;26;20229;-44
2024/04/14 08:32:48;;;;;;;0.10;0.10;;;20.40;47.40;;;;;;5417242;26;20275;-45
2024/04/14 08:35:17;;;;;;;0.10;0.10;;;20.40;47.50;;;;;;5434833;26;20395;-44
2024/04/14 08:37:49;;;;;;;0.00;0.00;;;20.40;47.50;;;;;;5436566;26;20343;-47
2024/04/14 08:40:19;;;;;;;0.10;0.10;;;20.40;47.50;;;;;;5440683;26;20303;-44
2024/04/14 08:42:51;;;;;;;0.10;0.10;;;20.40;47.50;;;;;;5439956;26;20213;-45
2024/04/14 08:45:24;;;;;;;0.10;0.10;;;20.40;47.50;;;;;;5440242;26;20251;-46
2024/04/14 08:47:57;;;;;;;0.00;0.00;;;20.40;47.50;;;;;;5405947;26;20321;-46
2024/04/14 08:50:26;;;;;;;0.10;0.10;;;20.40;47.90;;;;;;5414840;26;20277;-45
2024/04/14 08:52:59;;;;;;;0.10;0.10;;;20.40;48.60;;;;;;5432649;26;20632;-45
2024/04/14 08:55:28;;;;;;;0.10;0.10;;;20.50;49.00;;;;;;5406499;26;20221;-45
2024/04/14 08:58:01;;;;;;;0.00;0.00;;;20.40;49.00;;;;;;5399711;26;20237;-48
2024/04/14 09:00:34;;;;;;;0.00;0.00;;;20.50;49.00;;;;;;5400154;26;20213;-45
2024/04/14 09:03:06;;;;;;;0.00;0.00;;;20.50;49.00;;;;;;5399579;26;20225;-46
2024/04/14 09:05:37;;;;;;;0.00;0.00;;;20.50;48.90;;;;;;5398930;26;20681;-47
2024/04/14 09:08:10;;;;;;;0.00;0.00;;;20.50;48.90;;;;;;5400623;26;20217;-45
2024/04/14 09:10:39;;;;;;;0.00;0.00;;;20.60;48.90;;;;;;5401634;26;20213;-47
2024/04/14 09:13:11;;;;;;;0.10;0.10;;;20.60;48.90;;;;;;5402844;26;20221;-49
2024/04/14 09:15:44;;;;;;;0.00;0.00;;;20.60;48.90;;;;;;5401531;26;20260;-46
2024/04/14 09:18:16;;;;;;;0.00;0.00;;;20.50;48.90;;;;;;5428570;26;20225;-46
2024/04/14 09:20:45;;;;;;;0.00;0.00;;;20.60;48.90;;;;;;5438676;26;20696;-45
2024/04/14 09:23:18;;;;;;;0.00;0.00;;;20.50;48.80;;;;;;5433003;26;20337;-46
2024/04/14 09:25:47;;;;;;;0.00;0.00;;;20.60;49.40;;;;;;5439185;26;20220;-46
2024/04/14 09:28:22;;;;;;;0.08;0.08;;;20.60;48.80;;;;;;5456699;21;21255;-53
2024/04/14 09:30:56;;;;;;;0.00;0.00;;;20.60;48.70;;;;;;5449094;26;20236;-50
2024/04/14 09:33:31;;;;;;;0.00;0.00;;;20.60;48.70;;;;;;5452583;26;20228;-53
2024/04/14 09:36:01;;;;;;;0.00;0.00;;;20.70;48.70;;;;;;5437540;26;20298;-52
2024/04/14 09:38:35;;;;;;;0.10;0.10;;;20.60;48.60;;;;;;5432788;26;20233;-50
2024/04/14 09:41:05;;;;;;;0.10;0.10;;;20.60;48.60;;;;;;5438073;26;20693;-49
2024/04/14 09:43:39;;;;;;;0.00;0.00;;;20.70;48.60;;;;;;5438367;26;20751;-52
2024/04/14 09:46:13;;;;;;;0.00;0.00;;;20.60;48.50;;;;;;5438239;26;20221;-48
2024/04/14 09:48:48;;;;;;;0.00;0.00;;;20.60;48.50;;;;;;5437164;26;20267;-50
2024/04/14 09:51:19;;;;;;;0.00;0.00;;;20.60;48.50;;;;;;5435498;26;20275;-49
2024/04/14 09:53:53;;;;;;;0.10;0.10;;;20.60;48.50;;;;;;5438621;26;20243;-51
2024/04/14 09:56:23;;;;;;;0.05;0.05;;;20.60;48.40;;;;;;5437553;26;20759;-50
2024/04/14 09:58:57;;;;;;;0.00;0.00;;;20.60;48.40;;;;;;5438486;26;20269;-49
2024/04/14 10:01:37;;;;;;;0.10;0.10;;;20.60;48.40;;;;;;5437735;26;20217;-48
2024/04/14 10:04:11;;;;;;;0.10;0.10;;;20.60;49.00;;;;;;5437802;26;20236;-49
2024/04/14 10:06:42;;;;;;;0.00;0.00;;;20.60;48.40;;;;;;5437433;26;20680;-51
2024/04/14 10:09:15;;;;;;;0.00;0.00;;;20.60;48.40;;;;;;5437537;26;20692;-51
2024/04/14 10:11:45;;;;;;;0.05;0.05;;;20.60;48.40;;;;;;5436722;26;20279;-46
2024/04/14 10:14:18;;;;;;;0.00;0.00;;;20.60;48.40;;;;;;5437266;26;20776;-51
2024/04/14 10:17:07;;;;;;;0.00;0.00;;;20.60;48.30;;;;;;5437843;26;20681;-52
2024/04/14 10:19:40;;;;;;;0.10;0.10;;;20.60;48.30;;;;;;5437358;26;20259;-49
2024/04/14 10:22:10;;;;;;;0.10;0.10;;;20.60;48.30;;;;;;5434026;26;20687;-51
2024/04/14 10:24:53;;;;;;;0.00;0.00;;;20.60;48.30;;;;;;5436843;26;20664;-48
2024/04/14 10:27:23;;;;;;;0.10;0.10;;;20.60;48.30;;;;;;5437337;26;20692;-50
2024/04/14 10:30:03;;;;;;;0.08;0.08;;;20.60;48.20;;;;;;5438266;26;20651;-50
2024/04/14 10:32:36;;;;;;;0.10;0.10;;;20.50;48.20;;;;;;5437893;26;20751;-50
2024/04/14 10:35:18;;;;;;;0.10;0.10;;;20.50;48.20;;;;;;5436609;26;20267;-51
2024/04/14 10:37:55;;;;;;;0.10;0.10;;;20.50;48.20;;;;;;5437108;26;20220;-53
2024/04/14 10:40:27;;;;;;;0.08;0.08;;;20.50;48.20;;;;;;5437806;26;20311;-48
2024/04/14 10:42:57;;;;;;;0.00;0.00;;;20.50;48.20;;;;;;5436898;26;20738;-48
2024/04/14 10:45:33;;;;;;;0.10;0.10;;;20.50;48.20;;;;;;5437805;26;20259;-49
2024/04/14 10:48:05;;;;;;;0.10;0.10;;;20.50;48.30;;;;;;5435585;26;20840;-48
2024/04/14 10:50:39;;;;;;;0.05;0.05;;;20.50;48.20;;;;;;5435652;26;20801;-51
2024/04/14 10:53:09;;;;;;;0.00;0.00;;;20.40;48.20;;;;;;5440506;26;20259;-50
2024/04/14 10:55:42;;;;;;;0.10;0.10;;;20.50;48.20;;;;;;5442489;26;20650;-47
2024/04/14 10:58:11;;;;;;;0.10;0.10;;;20.50;48.20;;;;;;5442203;26;20217;-50
2024/04/14 11:00:44;;;;;;;0.10;0.10;;;20.50;48.20;;;;;;5442082;26;20217;-52
2024/04/14 11:03:18;;;;;;;0.00;0.00;;;20.50;48.20;;;;;;5441778;26;20252;-49
2024/04/14 11:05:50;;;;;;;0.00;0.00;;;20.50;48.20;;;;;;5442020;26;20734;-50
2024/04/14 11:08:20;;;;;;;0.00;0.00;;;20.50;48.20;;;;;;5442223;26;20220;-50
2024/04/14 11:10:54;;;;;;;0.10;0.10;;;20.50;48.10;;;;;;5442107;26;20221;-49
2024/04/14 11:13:27;;;;;;;0.00;0.00;;;20.40;48.10;;;;;;5441577;26;20348;-50
2024/04/14 11:16:02;;;;;;;0.00;0.00;;;20.50;48.10;;;;;;5442356;26;20229;-49
2024/04/14 11:18:35;;;;;;;0.00;0.00;;;20.50;48.10;;;;;;5441636;26;20254;-47
2024/04/14 11:21:07;;;;;;;0.10;0.10;;;20.50;48.10;;;;;;5441172;26;20812;-51
2024/04/14 11:23:37;;;;;;;0.10;0.10;;;20.40;48.10;;;;;;5436574;26;20280;-49
2024/04/14 11:26:10;;;;;;;0.00;0.00;;;20.40;48.00;;;;;;5406252;26;20229;-47
2024/04/14 11:28:40;;;;;;;0.00;0.00;;;20.40;48.10;;;;;;5438391;26;20228;-47
2024/04/14 11:31:13;;;;;;;0.10;0.10;;;20.40;48.10;;;;;;5435102;26;20331;-50
2024/04/14 11:33:52;;;;;;;0.10;0.10;;;20.40;48.10;;;;;;5441144;26;20232;-53
2024/04/14 11:36:24;;;;;;;0.10;0.10;;;20.40;48.10;;;;;;5442289;26;20278;-49
2024/04/14 11:38:54;;;;;;;0.00;0.00;;;20.40;48.00;;;;;;5441790;26;20228;-47
2024/04/14 11:41:26;;;;;;;0.10;0.10;;;20.40;48.00;;;;;;5441143;26;20225;-48
2024/04/14 11:43:55;;;;;;;0.10;0.10;;;20.30;48.00;;;;;;5441571;26;20237;-49
2024/04/14 11:46:28;;;;;;;0.10;0.10;;;20.40;48.10;;;;;;5441337;26;20298;-49
2024/04/14 11:49:00;;;;;;;0.00;0.00;;;20.40;48.10;;;;;;5441067;26;20259;-48
2024/04/14 11:51:32;;;;;;;0.10;0.10;;;20.40;48.00;;;;;;5442110;26;20232;-47
2024/04/14 11:54:01;;;;;;;0.10;0.10;;;20.40;48.00;;;;;;5441576;26;20232;-48
2024/04/14 11:56:35;;;;;;;0.10;0.10;;;20.40;48.00;;;;;;5441320;26;20336;-48
2024/04/14 11:59:04;;;;;;;0.10;0.10;;;20.40;48.10;;;;;;5441198;26;20705;-49
2024/04/14 12:01:36;;;;;;;0.10;0.10;;;20.30;48.00;;;;;;5440829;26;20304;-47
2024/04/14 12:04:08;;;;;;;0.00;0.00;;;20.30;48.00;;;;;;5440965;26;20229;-47
2024/04/14 12:06:41;;;;;;;0.03;0.03;;;20.30;48.00;;;;;;5440825;26;20221;-48
2024/04/14 12:09:10;;;;;;;0.10;0.10;;;20.30;48.00;;;;;;5441532;26;20220;-51
2024/04/14 12:11:42;;;;;;;0.10;0.10;;;20.30;48.00;;;;;;5441272;26;20293;-48
2024/04/14 12:14:11;;;;;;;0.10;0.10;;;20.30;48.00;;;;;;5441415;26;20232;-49
2024/04/14 12:16:44;;;;;;;0.03;0.03;;;20.30;48.00;;;;;;5441051;26;20570;-46
2024/04/14 12:19:16;;;;;;;0.08;0.08;;;20.30;48.00;;;;;;5440603;26;20839;-49
2024/04/14 12:21:48;;;;;;;0.10;0.10;;;20.30;48.00;;;;;;5440487;26;20225;-49
2024/04/14 12:24:17;;;;;;;0.00;0.00;;;20.30;48.00;;;;;;5440954;26;20232;-48
2024/04/14 12:26:50;;;;;;;0.00;0.00;;;20.30;48.00;;;;;;5440892;26;20692;-48
2024/04/14 12:29:19;;;;;;;0.10;0.10;;;20.30;48.00;;;;;;5440988;26;20724;-48
2024/04/14 12:31:52;;;;;;;0.00;0.00;;;20.30;48.00;;;;;;5421458;26;20336;-47
2024/04/14 12:34:24;;;;;;;0.10;0.10;;;20.30;48.00;;;;;;5404120;26;20233;-46
2024/04/14 12:36:56;;;;;;;0.00;0.00;;;20.30;48.00;;;;;;5404736;26;20218;-47
2024/04/14 12:39:26;;;;;;;0.00;0.00;;;20.20;47.90;;;;;;5405479;26;20701;-48
2024/04/14 12:41:58;;;;;;;0.00;0.00;;;20.20;47.90;;;;;;5443159;26;20341;-49
2024/04/14 12:44:27;;;;;;;0.10;0.10;;;20.20;47.90;;;;;;5440498;26;20607;-49
2024/04/14 12:47:00;;;;;;;0.00;0.00;;;20.20;47.90;;;;;;5440143;26;20237;-49
2024/04/14 12:49:32;;;;;;;0.00;0.00;;;20.20;48.00;;;;;;5440113;26;20738;-47
2024/04/14 12:52:05;;;;;;;0.00;0.00;;;20.20;48.00;;;;;;5440392;26;20559;-47
2024/04/14 12:54:34;;;;;;;0.00;0.00;;;20.20;47.90;;;;;;5440840;26;20279;-49
2024/04/14 12:57:07;;;;;;;0.10;0.10;;;20.20;48.00;;;;;;5440336;26;20288;-47
2024/04/14 12:59:36;;;;;;;0.00;0.00;;;20.20;48.00;;;;;;5439720;26;20225;-46
2024/04/14 13:02:09;;;;;;;0.00;0.00;;;20.20;48.00;;;;;;5439638;26;20216;-50
2024/04/14 13:04:43;;;;;;;0.00;0.00;;;20.20;47.90;;;;;;5439219;26;20727;-50
2024/04/14 13:07:15;;;;;;;0.10;0.10;;;20.20;48.00;;;;;;5439711;26;20271;-47
2024/04/14 13:09:45;;;;;;;0.00;0.00;;;20.20;48.00;;;;;;5440313;26;20232;-49